createdAt,value
2023-05-16T06:25:19.519Z,25.00
2023-05-16T06:26:20.582Z,25.00
2023-05-16T06:27:20.454Z,25.00
2023-05-16T06:28:20.698Z,25.00
2023-05-16T06:29:20.469Z,25.00
2023-05-16T06:30:19.420Z,25.00
2023-05-16T06:31:19.489Z,0.00
2023-05-16T06:32:19.491Z,0.00
2023-05-16T06:33:19.423Z,0.00
2023-05-16T06:34:20.397Z,0.00
2023-05-16T06:35:20.402Z,0.00
2023-05-16T06:36:19.378Z,0.00
2023-05-16T06:37:20.396Z,0.00
2023-05-16T06:38:19.386Z,0.00
2023-05-16T06:39:20.351Z,0.00
2023-05-16T06:40:20.367Z,0.00
2023-05-16T06:41:20.372Z,0.00
2023-05-16T06:42:19.325Z,0.00
2023-05-16T06:43:20.352Z,0.00
2023-05-16T06:44:20.445Z,0.00
2023-05-16T06:45:20.833Z,0.00
2023-05-16T06:46:20.367Z,0.00
2023-05-16T06:47:20.381Z,0.00
2023-05-16T06:49:38.962Z,25.00
2023-05-16T06:51:58.035Z,25.00
2023-05-16T06:52:57.698Z,25.00
2023-05-16T06:53:58.698Z,25.00
2023-05-16T06:54:59.459Z,25.00
2023-05-16T06:55:58.050Z,25.00
2023-05-16T06:56:57.646Z,25.00
2023-05-16T06:59:17.422Z,25.00
2023-05-16T07:00:18.667Z,25.00
2023-05-16T07:01:18.078Z,25.00
2023-05-16T07:02:18.204Z,25.00
2023-05-16T07:03:18.129Z,25.00
2023-05-16T07:04:17.066Z,19.29
2023-05-16T07:05:18.037Z,16.57
2023-05-16T07:06:18.048Z,25.19
2023-05-16T07:07:17.018Z,26.87
2023-05-16T07:08:17.994Z,48.49
2023-05-16T07:09:16.959Z,56.26
2023-05-16T07:11:36.600Z,25.00
2023-05-16T07:12:37.774Z,25.00
2023-05-16T07:13:36.570Z,25.00
2023-05-16T07:14:36.492Z,25.00
2023-05-16T07:15:36.747Z,25.00
2023-05-16T07:16:36.511Z,26.88
2023-05-16T07:17:37.631Z,23.52
2023-05-16T07:18:37.595Z,46.82
2023-05-16T07:19:37.470Z,63.64
2023-05-16T07:20:36.459Z,47.39
2023-05-16T07:21:36.429Z,24.70
2023-05-16T07:22:36.527Z,23.48
2023-05-16T07:23:37.503Z,30.47
2023-05-16T07:24:37.434Z,25.00
2023-05-16T07:25:37.447Z,30.09
2023-05-16T07:26:37.423Z,69.09
2023-05-16T07:27:37.395Z,58.22
2023-05-16T07:28:37.501Z,55.68
2023-05-16T07:29:37.540Z,30.89
2023-05-16T07:30:37.386Z,26.05
2023-05-16T07:31:37.458Z,32.36
2023-05-16T07:32:37.394Z,39.24
2023-05-16T07:33:37.416Z,58.36
2023-05-16T07:34:37.345Z,42.70
2023-05-16T07:35:36.418Z,33.89
2023-05-16T07:36:36.427Z,34.04
2023-05-16T07:37:37.343Z,40.46
2023-05-16T07:38:37.355Z,55.18
2023-05-16T07:39:37.314Z,60.86
2023-05-16T07:40:37.318Z,80.51
2023-05-16T07:41:36.416Z,85.77
2023-05-16T07:42:37.290Z,62.78
2023-05-16T07:43:37.304Z,73.61
2023-05-16T07:44:37.325Z,94.55
2023-05-16T07:45:37.571Z,59.09
2023-05-16T07:46:38.118Z,47.40
2023-05-16T07:47:38.512Z,39.18
2023-05-16T07:49:56.162Z,25.00
2023-05-16T07:50:56.969Z,25.00
2023-05-16T07:53:15.498Z,25.00
2023-05-16T07:54:15.962Z,25.00
2023-05-16T07:55:15.920Z,25.00
2023-05-16T07:56:15.333Z,25.00
2023-05-16T07:57:15.266Z,25.00
2023-05-16T07:58:15.939Z,34.20
2023-05-16T07:59:14.897Z,50.29
2023-05-16T08:00:14.967Z,30.39
2023-05-16T08:01:15.878Z,25.00
2023-05-16T08:02:14.887Z,25.92
2023-05-16T08:04:34.345Z,25.00
2023-05-16T08:05:34.130Z,25.00
2023-05-16T08:06:35.063Z,25.00
2023-05-16T08:07:35.012Z,25.00
2023-05-16T08:08:34.973Z,25.00
2023-05-16T08:09:34.029Z,25.38
2023-05-16T08:10:34.935Z,39.58
2023-05-16T08:11:33.955Z,58.00
2023-05-16T08:12:34.983Z,55.89
2023-05-16T08:13:34.943Z,18.29
2023-05-16T08:14:34.931Z,32.99
2023-05-16T08:15:33.972Z,24.03
2023-05-16T08:16:33.931Z,15.55
2023-05-16T08:17:48.325Z,88.17
2023-05-16T08:18:34.997Z,89.21
2023-05-16T08:19:36.992Z,101.36
2023-05-16T08:21:53.026Z,25.00
2023-05-16T08:22:53.005Z,25.00
2023-05-16T08:23:54.154Z,25.00
2023-05-16T08:24:57.037Z,25.00
2023-05-16T08:25:54.349Z,25.00
2023-05-16T08:26:53.230Z,25.00
2023-05-16T08:27:56.964Z,25.00
2023-05-16T08:28:53.977Z,25.00
2023-05-16T08:29:53.956Z,25.00
2023-05-16T08:30:54.114Z,25.00
2023-05-16T08:31:54.092Z,25.00
2023-05-16T08:32:53.975Z,25.00
2023-05-16T08:33:53.989Z,29.78
2023-05-16T08:34:53.908Z,64.62
2023-05-16T08:35:52.886Z,85.73
2023-05-16T08:36:53.912Z,153.59
2023-05-16T08:37:53.961Z,172.99
2023-05-16T08:38:52.887Z,97.11
2023-05-16T08:39:52.863Z,31.03
2023-05-16T08:40:53.846Z,25.00
2023-05-16T08:41:52.847Z,32.16
2023-05-16T08:42:52.901Z,12.72
2023-05-16T08:43:54.098Z,0.00
2023-05-16T08:44:52.829Z,0.00
2023-05-16T08:45:53.813Z,13.71
2023-05-16T08:46:53.900Z,17.54
2023-05-16T08:47:53.833Z,38.05
2023-05-16T08:48:53.824Z,46.81
2023-05-16T08:49:52.793Z,47.99
2023-05-16T08:50:53.788Z,17.43
2023-05-16T08:51:53.774Z,24.38
2023-05-16T08:52:53.809Z,71.39
2023-05-16T08:53:52.777Z,14.24
2023-05-16T08:55:09.104Z,46.78
2023-05-16T08:55:53.752Z,45.71
2023-05-16T08:56:52.784Z,67.33
2023-05-16T08:57:53.750Z,51.13
2023-05-16T08:58:53.127Z,15.91
2023-05-16T08:59:54.611Z,6.07
2023-05-16T09:00:52.889Z,37.41
2023-05-16T09:01:53.402Z,67.78
2023-05-16T09:02:52.801Z,141.60
2023-05-16T09:03:54.330Z,102.77
2023-05-16T09:06:12.101Z,25.00
2023-05-16T09:07:13.128Z,25.00
2023-05-16T09:08:12.687Z,25.00
2023-05-16T09:09:11.656Z,25.00
2023-05-16T09:10:12.756Z,25.00
2023-05-16T09:11:12.669Z,34.01
2023-05-16T09:12:11.900Z,46.17
2023-05-16T09:13:11.725Z,51.48
2023-05-16T09:14:13.212Z,25.00
2023-05-16T09:15:12.636Z,164.41
2023-05-16T09:16:11.628Z,181.96
2023-05-16T09:17:12.613Z,40.89
2023-05-16T09:18:12.869Z,62.43
2023-05-16T09:19:11.655Z,138.67
2023-05-16T09:20:12.616Z,138.36
2023-05-16T09:21:12.796Z,117.90
2023-05-16T09:22:12.593Z,179.12
2023-05-16T09:23:12.593Z,115.21
2023-05-16T09:24:12.614Z,84.37
2023-05-16T09:25:25.491Z,83.35
2023-05-16T09:26:12.568Z,77.01
2023-05-16T09:27:11.565Z,91.85
2023-05-16T09:28:12.593Z,118.33
2023-05-16T09:30:30.803Z,25.00
2023-05-16T09:31:31.581Z,25.00
2023-05-16T09:32:30.605Z,25.00
2023-05-16T09:33:30.588Z,25.00
2023-05-16T09:34:30.506Z,25.00
2023-05-16T09:35:43.152Z,23.99
2023-05-16T09:36:31.438Z,8.75
2023-05-16T09:37:30.468Z,24.30
2023-05-16T09:38:31.522Z,31.83
2023-05-16T09:39:31.518Z,38.09
2023-05-16T09:40:31.242Z,48.57
2023-05-16T09:41:46.118Z,56.57
2023-05-16T09:42:30.516Z,57.42
2023-05-16T09:44:49.491Z,25.00
2023-05-16T09:45:49.496Z,25.00
2023-05-16T09:46:49.588Z,25.00
2023-05-16T09:49:09.125Z,25.00
2023-05-16T09:50:09.661Z,25.00
2023-05-16T09:51:08.557Z,25.00
2023-05-16T09:52:10.907Z,25.00
2023-05-16T09:53:09.811Z,25.00
2023-05-16T09:54:10.368Z,45.97
2023-05-16T09:55:09.949Z,77.93
2023-05-16T09:56:09.916Z,66.82
2023-05-16T09:57:08.952Z,96.42
2023-05-16T09:58:08.991Z,74.66
2023-05-16T09:59:09.059Z,81.87
2023-05-16T10:00:09.054Z,106.11
2023-05-16T10:01:10.094Z,144.71
2023-05-16T10:02:10.213Z,164.46
2023-05-16T10:03:10.279Z,161.30
2023-05-16T10:04:10.269Z,141.83
2023-05-16T10:05:09.757Z,120.02
2023-05-16T10:06:10.249Z,147.01
2023-05-16T10:07:09.334Z,161.62
2023-05-16T10:08:09.284Z,197.73
2023-05-16T10:09:10.337Z,192.05
2023-05-16T10:10:09.291Z,134.01
2023-05-16T10:11:10.292Z,160.06
2023-05-16T10:12:10.340Z,130.57
2023-05-16T10:13:09.373Z,90.65
2023-05-16T10:14:11.087Z,60.89
2023-05-16T10:15:20.381Z,49.19
2023-05-16T10:17:29.144Z,25.00
2023-05-16T10:19:48.113Z,25.00
2023-05-16T10:20:48.263Z,25.00
2023-05-16T10:21:48.004Z,25.00
2023-05-16T10:22:49.185Z,25.00
2023-05-16T10:23:48.072Z,25.00
2023-05-16T10:24:48.042Z,8.56
2023-05-16T10:25:49.068Z,13.63
2023-05-16T10:26:48.064Z,41.26
2023-05-16T10:27:49.171Z,60.93
2023-05-16T10:28:49.164Z,68.70
2023-05-16T10:34:45.619Z,25.00
2023-05-16T10:35:46.620Z,25.00
2023-05-16T10:36:45.581Z,25.00
2023-05-16T10:37:46.600Z,25.00
2023-05-16T10:38:46.689Z,25.00
2023-05-16T10:39:45.609Z,25.00
2023-05-16T10:40:46.693Z,6.73
2023-05-16T10:41:46.603Z,65.81
2023-05-16T10:42:45.575Z,26.15
2023-05-16T10:43:45.761Z,129.19
2023-05-16T10:44:54.628Z,213.58
2023-05-16T10:45:46.590Z,213.93
2023-05-16T10:46:46.535Z,95.67
2023-05-16T10:47:46.522Z,60.49
2023-05-16T10:48:47.140Z,21.73
2023-05-16T10:49:46.459Z,16.26
2023-05-16T10:50:46.482Z,27.35
2023-05-16T10:51:45.451Z,77.27
2023-05-16T10:52:46.666Z,43.81
2023-05-16T10:53:46.689Z,27.21
2023-05-16T10:54:46.468Z,80.29
2023-05-16T10:55:45.424Z,107.87
2023-05-16T10:56:45.404Z,332.19
2023-05-16T10:57:45.453Z,250.00
2023-05-16T10:58:45.425Z,117.40
2023-05-16T10:59:46.408Z,117.87
2023-05-16T11:00:46.411Z,73.62
2023-05-16T11:01:46.465Z,86.35
2023-05-16T11:02:46.498Z,94.37
2023-05-16T11:03:45.524Z,109.51
2023-05-16T11:04:46.375Z,73.80
2023-05-16T11:05:45.451Z,67.12
2023-05-16T11:06:46.355Z,87.52
2023-05-16T11:07:46.359Z,118.18
2023-05-16T11:08:45.510Z,121.68
2023-05-16T11:09:46.351Z,162.01
2023-05-16T11:10:46.388Z,186.40
2023-05-16T11:11:48.646Z,175.71
2023-05-16T11:12:46.334Z,175.87
2023-05-16T11:13:47.137Z,177.20
2023-05-16T11:14:47.102Z,132.43
2023-05-16T11:15:45.436Z,135.21
2023-05-16T11:16:45.395Z,133.04
2023-05-16T11:17:46.690Z,118.63
2023-05-16T11:18:45.360Z,113.42
2023-05-16T11:19:46.826Z,129.15
2023-05-16T11:20:45.261Z,107.71
2023-05-16T11:21:46.265Z,93.59
2023-05-16T11:22:46.255Z,108.14
2023-05-16T11:23:46.255Z,107.60
2023-05-16T11:24:45.314Z,95.88
2023-05-16T11:25:45.376Z,122.15
2023-05-16T11:26:46.307Z,106.44
2023-05-16T11:29:04.364Z,25.00
2023-05-16T11:30:04.804Z,25.00
2023-05-16T11:31:05.294Z,25.00
2023-05-16T11:32:05.399Z,25.00
2023-05-16T11:33:05.293Z,25.00
2023-05-16T11:34:05.261Z,30.56
2023-05-16T11:35:05.278Z,62.11
2023-05-16T11:36:15.023Z,49.49
2023-05-16T11:37:05.203Z,51.23
2023-05-16T11:38:04.221Z,36.06
2023-05-16T11:39:05.392Z,28.10
2023-05-16T11:40:04.537Z,34.61
2023-05-16T11:41:04.187Z,55.74
2023-05-16T11:42:04.200Z,27.02
2023-05-16T11:43:07.184Z,28.25
2023-05-16T11:44:05.412Z,28.44
2023-05-16T11:45:05.286Z,27.29
2023-05-16T11:46:04.173Z,42.41
2023-05-16T11:47:04.395Z,33.47
2023-05-16T11:48:04.564Z,0.00
2023-05-16T11:50:23.463Z,25.00
2023-05-16T11:51:23.353Z,25.00
2023-05-16T11:52:24.057Z,25.00
2023-05-16T11:53:24.703Z,25.00
2023-05-16T11:54:24.149Z,25.00
2023-05-16T11:55:39.489Z,58.49
2023-05-16T11:59:12.330Z,25.00
2023-05-16T12:02:04.331Z,25.00
2023-05-16T12:03:06.242Z,25.00
2023-05-16T12:04:04.809Z,25.00
2023-05-16T12:06:23.209Z,25.00
2023-05-16T12:08:42.364Z,25.00
2023-05-16T12:12:22.879Z,25.00
2023-05-16T12:13:22.475Z,25.00
2023-05-16T12:16:05.438Z,25.00
2023-05-16T12:17:04.310Z,25.00
2023-05-16T12:18:05.182Z,25.00
2023-05-16T12:20:23.390Z,25.00
2023-05-16T12:21:23.653Z,25.00
2023-05-16T12:22:25.023Z,25.00
2023-05-16T12:28:45.640Z,25.00
2023-05-16T12:32:21.479Z,25.00
2023-05-16T12:34:40.708Z,25.00
2023-05-16T12:36:59.961Z,25.00
2023-05-16T12:38:00.630Z,25.00
2023-05-16T12:39:00.591Z,25.00
2023-05-16T12:39:59.513Z,25.00
2023-05-16T12:40:59.509Z,25.00
2023-05-16T12:42:01.178Z,59.95
2023-05-16T12:42:59.510Z,39.75
2023-05-16T12:43:59.530Z,14.48
2023-05-16T12:46:18.524Z,25.00
2023-05-16T12:47:19.495Z,25.00
2023-05-16T12:54:10.080Z,25.00
2023-05-16T12:55:04.603Z,25.00
2023-05-16T12:56:03.800Z,25.00
2023-05-16T12:57:03.442Z,25.00
2023-05-16T12:58:03.515Z,25.00
2023-05-16T12:59:04.483Z,25.00
2023-05-16T13:01:23.541Z,25.00
2023-05-16T13:02:22.749Z,25.00
2023-05-16T13:03:24.139Z,25.00
2023-05-16T13:04:22.804Z,25.00
2023-05-16T13:05:24.837Z,25.00
2023-05-16T13:06:24.406Z,7.61
2023-05-16T13:07:23.660Z,23.68
2023-05-16T13:08:23.639Z,38.38
2023-05-16T13:09:23.735Z,10.50
2023-05-16T13:14:02.312Z,25.00
2023-05-16T13:15:02.955Z,25.00
2023-05-16T13:16:03.918Z,25.00
2023-05-16T14:11:14.299Z,25.00
2023-05-16T14:12:13.924Z,25.00
2023-05-16T14:13:15.278Z,25.00
2023-05-16T14:14:13.871Z,25.00
2023-05-16T14:15:13.857Z,25.00
2023-05-16T14:16:14.883Z,25.00
2023-05-16T14:17:13.879Z,0.00
2023-05-16T14:18:13.956Z,0.00
2023-05-16T14:19:17.287Z,0.00
2023-05-16T14:20:14.821Z,0.00
2023-05-16T14:21:14.874Z,0.00
2023-05-16T14:22:13.773Z,0.00
2023-05-16T14:23:13.804Z,0.00
2023-05-16T14:24:14.852Z,0.00
2023-05-16T14:25:13.829Z,0.00
2023-05-16T14:26:13.952Z,0.00
2023-05-16T14:27:13.937Z,0.00
2023-05-16T14:28:14.958Z,0.00
2023-05-16T14:29:14.983Z,0.00
2023-05-16T14:30:15.093Z,0.00
2023-05-16T14:31:14.053Z,0.00
2023-05-16T14:32:14.301Z,0.00
2023-05-16T14:33:15.225Z,0.00
2023-05-16T14:34:14.223Z,0.00
2023-05-16T14:35:15.176Z,0.00
2023-05-16T14:36:15.287Z,0.00
2023-05-16T14:37:15.205Z,0.00
2023-05-16T14:38:15.405Z,0.00
2023-05-16T14:39:14.397Z,0.00
2023-05-16T14:40:14.432Z,0.00
2023-05-16T14:41:14.345Z,0.00
2023-05-16T14:42:14.438Z,0.00
2023-05-16T14:43:15.470Z,0.00
2023-05-16T14:44:14.461Z,0.00
2023-05-16T14:45:14.621Z,0.00
2023-05-16T14:46:15.585Z,14.18
2023-05-16T14:47:15.719Z,32.34
2023-05-16T14:48:14.796Z,43.36
2023-05-16T14:49:15.665Z,17.33
2023-05-16T14:50:14.720Z,26.03
2023-05-16T14:51:14.772Z,25.00
2023-05-16T14:52:15.794Z,42.13
2023-05-16T14:53:15.846Z,10.72
2023-05-16T14:54:14.870Z,11.73
2023-05-16T14:55:14.905Z,29.49
2023-05-16T14:56:16.042Z,0.01
2023-05-16T14:57:14.930Z,34.04
2023-05-16T14:58:16.020Z,41.99
2023-05-16T14:59:15.081Z,25.00
2023-05-16T15:00:15.101Z,41.84
2023-05-16T15:01:15.231Z,74.20
2023-05-16T15:02:16.154Z,72.62
2023-05-16T15:03:15.991Z,34.49
2023-05-16T15:04:15.333Z,1.88
2023-05-16T15:05:16.308Z,25.00
2023-05-16T15:22:25.382Z,25.00
2023-05-16T15:23:25.787Z,25.00
2023-05-16T15:24:25.326Z,25.00
2023-05-16T15:25:25.504Z,25.00
2023-05-16T15:26:25.598Z,25.00
2023-05-16T15:27:26.172Z,25.00
2023-05-16T15:28:25.215Z,3.96
2023-05-16T15:29:25.238Z,0.00
2023-05-16T15:30:25.257Z,0.00
2023-05-16T15:31:26.200Z,0.00
2023-05-16T15:32:26.321Z,6.02
2023-05-16T15:33:26.179Z,25.33
2023-05-16T15:34:26.169Z,36.04
2023-05-16T15:35:25.209Z,25.00
2023-05-16T15:36:25.219Z,7.94
2023-05-16T15:37:26.201Z,0.94
2023-05-16T15:38:26.227Z,0.00
2023-05-16T15:39:25.141Z,17.77
2023-05-16T15:40:27.176Z,27.95
2023-05-16T15:41:43.668Z,39.54
2023-05-16T15:42:26.145Z,0.00
2023-05-16T15:43:25.161Z,11.19
2023-05-16T15:44:25.087Z,30.32
2023-05-16T15:45:26.299Z,0.00
2023-05-16T15:46:25.183Z,0.59
2023-05-16T15:47:25.103Z,37.28
2023-05-16T15:48:25.084Z,38.46
2023-05-16T15:49:25.120Z,64.59
2023-05-16T15:50:26.100Z,62.17
2023-05-16T15:51:25.092Z,52.11
2023-05-16T15:52:25.094Z,35.49
2023-05-16T15:53:25.282Z,79.54
2023-05-16T15:54:25.149Z,92.23
2023-05-16T15:55:25.158Z,108.23
2023-05-16T15:56:26.017Z,111.10
2023-05-16T15:57:25.989Z,63.75
2023-05-16T15:58:26.057Z,55.62
2023-05-16T15:59:25.975Z,67.72
2023-05-16T16:00:27.967Z,99.27
2023-05-16T16:01:25.114Z,89.13
2023-05-16T16:02:26.132Z,60.65
2023-05-16T16:03:26.097Z,65.66
2023-05-16T16:04:25.948Z,52.82
2023-05-16T16:05:24.974Z,60.77
2023-05-16T16:06:25.000Z,63.63
2023-05-16T16:07:25.957Z,83.49
2023-05-16T16:08:24.972Z,114.95
2023-05-16T16:09:26.027Z,111.58
2023-05-16T16:10:24.972Z,139.06
2023-05-16T16:11:26.017Z,132.30
2023-05-16T16:12:24.922Z,80.44
2023-05-16T16:13:24.939Z,52.16
2023-05-16T16:14:24.945Z,50.27
2023-05-16T16:15:25.905Z,80.60
2023-05-16T16:16:26.154Z,88.78
2023-05-16T16:17:24.927Z,88.66
2023-05-16T16:18:26.000Z,112.13
2023-05-16T16:19:26.743Z,164.08
2023-05-16T16:20:25.897Z,165.76
2023-05-16T16:21:25.889Z,143.84
2023-05-16T16:22:24.857Z,129.21
2023-05-16T16:23:25.882Z,136.09
2023-05-16T16:24:24.900Z,134.43
2023-05-16T16:25:25.983Z,93.63
2023-05-16T16:26:24.915Z,61.08
2023-05-16T16:27:24.839Z,75.65
2023-05-16T16:28:24.808Z,106.21
2023-05-16T16:29:25.802Z,133.34
2023-05-16T16:30:25.808Z,119.33
2023-05-16T16:31:25.917Z,129.70
2023-05-16T16:32:26.001Z,150.01
2023-05-16T16:33:25.830Z,135.10
2023-05-16T16:34:24.870Z,96.54
2023-05-16T16:35:24.943Z,67.66
2023-05-16T16:36:24.957Z,55.64
2023-05-16T16:37:26.066Z,65.30
2023-05-16T16:38:26.039Z,81.02
2023-05-16T16:39:26.076Z,72.66
2023-05-16T16:40:25.112Z,51.88
2023-05-16T16:41:26.149Z,75.44
2023-05-16T16:42:26.347Z,98.76
2023-05-16T16:43:25.234Z,114.58
2023-05-16T16:44:25.335Z,108.77
2023-05-16T16:45:26.486Z,138.66
2023-05-16T16:46:26.331Z,139.21
2023-05-16T16:47:25.379Z,129.39
2023-05-16T16:48:26.348Z,109.76
2023-05-16T16:49:26.397Z,126.36
2023-05-16T16:50:25.412Z,141.18
2023-05-16T16:51:26.433Z,131.54
2023-05-16T16:52:25.424Z,133.59
2023-05-16T16:53:26.462Z,154.12
2023-05-16T16:54:26.456Z,165.07
2023-05-16T16:55:26.779Z,159.49
2023-05-16T16:56:26.628Z,137.47
2023-05-16T16:57:25.598Z,138.84
2023-05-16T16:58:25.602Z,152.62
2023-05-16T16:59:26.530Z,150.67
2023-05-16T17:00:26.584Z,178.13
2023-05-16T17:01:28.973Z,196.25
2023-05-16T17:02:25.685Z,196.60
2023-05-16T17:03:25.658Z,202.42
2023-05-16T17:04:26.624Z,207.86
2023-05-16T17:05:26.747Z,212.95
2023-05-16T17:06:26.621Z,200.73
2023-05-16T17:07:26.611Z,190.04
2023-05-16T17:08:26.676Z,210.81
2023-05-16T17:09:25.594Z,236.39
2023-05-16T17:10:26.845Z,241.01
2023-05-16T17:11:26.558Z,225.05
2023-05-16T17:12:25.580Z,203.14
2023-05-16T17:13:25.542Z,214.56
2023-05-16T17:14:26.613Z,232.44
2023-05-16T17:15:25.698Z,197.91
2023-05-16T17:16:26.631Z,185.28
2023-05-16T17:17:26.570Z,164.56
2023-05-16T17:18:26.550Z,205.25
2023-05-16T17:19:25.550Z,246.10
2023-05-16T17:20:25.507Z,249.09
2023-05-16T17:21:26.521Z,240.56
2023-05-16T17:22:25.524Z,228.71
2023-05-16T17:23:26.499Z,215.28
2023-05-16T17:24:26.479Z,207.68
2023-05-16T17:25:26.658Z,191.40
2023-05-16T17:26:26.493Z,154.14
2023-05-16T17:27:25.474Z,133.75
2023-05-16T17:28:25.487Z,124.72
2023-05-16T17:29:26.449Z,99.44
2023-05-16T17:30:25.514Z,86.14
2023-05-16T17:31:26.428Z,68.47
2023-05-16T17:32:26.471Z,43.27
2023-05-16T17:33:26.518Z,22.14
2023-05-16T17:34:25.492Z,24.67
2023-05-16T17:35:26.527Z,28.30
2023-05-16T17:36:26.396Z,31.48
2023-05-16T17:37:26.409Z,58.88
2023-05-16T17:38:25.525Z,122.18
2023-05-16T17:39:25.393Z,98.05
2023-05-16T17:40:26.448Z,56.90
2023-05-16T17:41:25.415Z,38.86
2023-05-16T17:42:25.495Z,29.73
2023-05-16T17:43:25.501Z,52.66
2023-05-16T17:44:26.611Z,69.01
2023-05-16T17:45:25.836Z,63.49
2023-05-16T17:46:26.670Z,56.29
2023-05-16T17:47:26.755Z,14.30
2023-05-16T17:48:26.757Z,14.89
2023-05-16T17:49:26.820Z,25.00
2023-05-16T17:50:26.823Z,23.67
2023-05-16T17:51:26.850Z,32.25
2023-05-16T17:52:25.907Z,31.54
2023-05-16T17:53:26.899Z,24.85
2023-05-16T17:54:26.884Z,18.24
2023-05-16T17:55:27.085Z,20.77
2023-05-16T17:56:25.978Z,23.91
2023-05-16T17:57:25.993Z,37.83
2023-05-16T17:58:26.029Z,36.99
2023-05-16T17:59:27.053Z,36.54
2023-05-16T18:00:27.138Z,28.57
2023-05-16T18:01:26.146Z,12.79
2023-05-16T18:02:27.335Z,27.05
2023-05-16T18:03:27.273Z,47.76
2023-05-16T18:04:27.322Z,70.19
2023-05-16T18:05:26.705Z,86.10
2023-05-16T18:06:27.458Z,92.53
2023-05-16T18:07:26.556Z,87.27
2023-05-16T18:08:27.512Z,87.35
2023-05-16T18:09:26.558Z,100.29
2023-05-16T18:10:33.838Z,113.66
2023-05-16T18:11:27.562Z,113.77
2023-05-16T18:12:27.615Z,101.70
2023-05-16T18:13:27.541Z,87.29
2023-05-16T18:14:26.529Z,79.24
2023-05-16T18:15:27.760Z,94.20
2023-05-16T18:16:27.526Z,115.49
2023-05-16T18:17:26.490Z,143.47
2023-05-16T18:18:27.550Z,131.02
2023-05-16T18:19:26.573Z,108.70
2023-05-16T18:20:26.590Z,104.85
2023-05-16T18:21:26.490Z,101.04
2023-05-16T18:22:27.551Z,85.76
2023-05-16T18:23:27.497Z,81.56
2023-05-16T18:30:38.164Z,25.00
2023-05-16T18:31:36.938Z,25.00
2023-05-16T18:32:37.899Z,25.00
2023-05-16T18:33:38.109Z,25.00
2023-05-16T18:34:37.707Z,25.00
2023-05-16T18:35:37.804Z,25.00
2023-05-16T18:36:37.733Z,0.00
2023-05-16T18:37:36.807Z,0.00
2023-05-16T18:38:36.795Z,0.00
2023-05-16T18:39:37.715Z,5.52
2023-05-16T18:40:36.718Z,28.24
2023-05-16T18:41:37.722Z,24.12
2023-05-16T18:42:37.698Z,18.52
2023-05-16T18:43:37.715Z,15.89
2023-05-16T18:44:36.721Z,0.00
2023-05-16T18:45:37.644Z,0.00
2023-05-16T18:46:36.698Z,0.00
2023-05-16T18:47:36.766Z,26.14
2023-05-16T18:48:37.715Z,33.30
2023-05-16T18:49:36.712Z,46.73
2023-05-16T18:50:36.663Z,42.26
2023-05-16T18:51:37.685Z,28.33
2023-05-16T18:52:36.680Z,0.00
2023-05-16T18:53:37.701Z,2.38
2023-05-16T18:54:37.698Z,69.99
2023-05-16T18:55:37.737Z,74.99
2023-05-16T18:56:37.819Z,90.60
2023-05-16T18:57:37.827Z,91.85
2023-05-16T18:58:37.881Z,84.19
2023-05-16T18:59:37.873Z,81.43
2023-05-16T19:00:36.932Z,49.76
2023-05-16T19:01:38.004Z,64.79
2023-05-16T19:02:42.031Z,63.13
2023-05-16T19:03:38.163Z,63.48
2023-05-16T19:04:37.084Z,62.16
2023-05-16T19:05:37.481Z,45.64
2023-05-16T19:06:38.146Z,46.20
2023-05-16T19:07:38.081Z,42.67
2023-05-16T19:08:47.009Z,23.22
2023-05-16T19:22:24.169Z,25.00
2023-05-16T19:23:25.202Z,25.00
2023-05-16T19:24:23.738Z,25.00
2023-05-16T19:25:24.917Z,25.00
2023-05-16T19:26:24.833Z,25.00
2023-05-16T19:27:24.933Z,25.00
2023-05-16T19:28:25.109Z,0.00
2023-05-16T19:29:23.742Z,0.00
2023-05-16T19:30:24.762Z,0.00
2023-05-16T19:31:24.703Z,0.00
2023-05-16T19:32:24.802Z,0.00
2023-05-16T19:33:24.774Z,0.00
2023-05-16T19:34:24.779Z,0.00
2023-05-16T19:35:23.702Z,0.00
2023-05-16T19:36:24.785Z,0.00
2023-05-16T19:37:24.715Z,0.00
2023-05-16T19:38:24.757Z,0.41
2023-05-16T19:39:24.696Z,25.00
2023-05-16T19:40:23.788Z,38.25
2023-05-16T19:41:24.854Z,36.21
2023-05-16T19:42:23.815Z,21.93
2023-05-16T19:43:23.836Z,25.51
2023-05-16T19:44:23.872Z,34.58
2023-05-16T19:45:24.945Z,24.57
2023-05-16T19:46:24.998Z,39.71
2023-05-16T19:47:25.071Z,51.07
2023-05-16T19:48:25.155Z,99.76
2023-05-16T19:49:26.637Z,112.78
2023-05-16T19:50:24.079Z,160.70
2023-05-16T19:51:40.310Z,155.06
2023-05-16T19:52:25.056Z,155.24
2023-05-16T19:53:24.073Z,138.89
2023-05-16T19:54:25.070Z,128.20
2023-05-16T19:55:24.996Z,122.60
2023-05-16T19:56:24.019Z,110.33
2023-05-16T19:57:24.073Z,106.98
2023-05-16T19:58:25.125Z,121.57
2023-05-16T19:59:25.030Z,91.89
2023-05-16T20:00:24.975Z,65.18
2023-05-16T20:01:24.998Z,67.10
2023-05-16T20:02:24.727Z,50.27
2023-05-16T20:03:24.041Z,43.13
2023-05-16T20:04:25.117Z,71.95
2023-05-16T20:05:25.222Z,91.68
2023-05-16T20:06:24.058Z,75.34
2023-05-16T20:07:24.148Z,81.73
2023-05-16T20:08:24.127Z,103.26
2023-05-16T20:09:25.288Z,131.30
2023-05-16T20:10:24.244Z,176.08
2023-05-16T20:11:24.259Z,203.58
2023-05-16T20:12:25.296Z,206.68
2023-05-16T20:13:25.290Z,174.70
2023-05-16T20:14:25.289Z,198.39
2023-05-16T20:15:25.424Z,212.63
2023-05-16T20:16:25.373Z,250.83
2023-05-16T20:17:25.382Z,250.00
2023-05-16T20:18:25.398Z,221.50
2023-05-16T20:19:25.494Z,216.32
2023-05-16T20:20:25.404Z,198.82
2023-05-16T20:21:24.422Z,152.68
2023-05-16T20:22:24.452Z,121.34
2023-05-16T20:23:25.533Z,126.90
2023-05-16T20:24:25.472Z,123.46
2023-05-16T20:25:25.603Z,99.59
2023-05-16T20:26:25.565Z,71.31
2023-05-16T20:27:24.499Z,77.81
2023-05-16T20:28:24.589Z,107.69
2023-05-16T20:29:24.558Z,121.58
2023-05-16T20:30:24.531Z,131.84
2023-05-16T20:31:24.594Z,123.21
2023-05-16T20:32:24.650Z,118.73
2023-05-16T20:33:25.816Z,110.07
2023-05-16T20:34:25.688Z,113.00
2023-05-16T20:35:25.887Z,119.87
2023-05-16T20:36:25.727Z,116.54
2023-05-16T20:37:24.734Z,98.88
2023-05-16T20:38:25.750Z,109.85
2023-05-16T20:39:24.824Z,116.89
2023-05-16T20:40:25.758Z,138.30
2023-05-16T20:41:24.785Z,168.75
2023-05-16T20:42:25.906Z,159.60
2023-05-16T20:43:26.694Z,145.31
2023-05-16T20:44:24.957Z,136.30
2023-05-16T20:45:25.040Z,147.51
2023-05-16T20:46:25.111Z,123.81
2023-05-16T20:47:26.164Z,153.67
2023-05-16T20:48:26.356Z,191.63
2023-05-16T20:49:25.277Z,162.35
2023-05-16T20:50:26.248Z,122.84
2023-05-16T20:51:25.266Z,69.48
2023-05-16T20:52:25.277Z,72.48
2023-05-16T20:53:26.371Z,65.87
2023-05-16T20:54:25.459Z,69.81
2023-05-16T20:55:25.766Z,117.79
2023-05-16T20:56:25.508Z,159.72
2023-05-16T20:57:26.522Z,199.60
2023-05-16T20:58:26.536Z,208.21
2023-05-16T20:59:25.572Z,173.88
2023-05-16T21:00:25.514Z,141.64
2023-05-16T21:01:25.541Z,131.94
2023-05-16T21:02:26.617Z,108.32
2023-05-16T21:03:25.679Z,91.96
2023-05-16T21:04:25.664Z,97.33
2023-05-16T21:05:26.669Z,120.46
2023-05-16T21:06:25.680Z,144.33
2023-05-16T21:07:26.793Z,125.23
2023-05-16T21:08:26.823Z,90.31
2023-05-16T21:09:26.748Z,81.58
2023-05-16T21:10:26.797Z,73.73
2023-05-16T21:11:26.779Z,83.13
2023-05-16T21:12:26.828Z,90.54
2023-05-16T21:13:26.847Z,77.48
2023-05-16T21:14:27.014Z,88.09
2023-05-16T21:15:27.032Z,100.75
2023-05-16T21:16:26.936Z,116.97
2023-05-16T21:17:26.981Z,131.37
2023-05-16T21:18:27.111Z,117.11
2023-05-16T21:19:27.136Z,113.51
2023-05-16T21:20:26.109Z,116.64
2023-05-16T21:21:26.100Z,120.14
2023-05-16T21:22:27.112Z,121.68
2023-05-16T21:23:26.154Z,140.71
2023-05-16T21:24:26.136Z,164.42
2023-05-16T21:25:27.396Z,183.65
2023-05-16T21:26:26.231Z,162.21
2023-05-16T21:27:27.202Z,116.43
2023-05-16T21:28:27.300Z,104.66
2023-05-16T21:29:27.308Z,94.92
2023-05-16T21:30:26.533Z,85.34
2023-05-16T21:31:26.406Z,85.56
2023-05-16T21:32:26.411Z,100.33
2023-05-16T21:33:26.537Z,126.95
2023-05-16T21:34:26.501Z,126.56
2023-05-16T21:35:27.649Z,152.25
2023-05-16T21:36:27.545Z,175.08
2023-05-16T21:37:26.512Z,198.38
2023-05-16T21:38:27.534Z,189.71
2023-05-16T21:39:26.657Z,165.23
2023-05-16T21:40:26.642Z,156.97
2023-05-16T21:41:27.663Z,143.82
2023-05-16T21:42:26.710Z,121.80
2023-05-16T21:43:27.668Z,100.50
2023-05-16T21:44:27.733Z,103.60